createdAt,value
2019-05-25T00:00:53.751Z,52.00
2019-05-25T00:01:53.838Z,51.72
2019-05-25T00:02:53.809Z,52.20
2019-05-25T00:03:53.831Z,51.62
2019-05-25T00:04:53.851Z,51.53
2019-05-25T00:05:53.884Z,48.45
2019-05-25T00:06:53.910Z,50.56
2019-05-25T00:07:53.941Z,51.53
2019-05-25T00:08:53.965Z,49.12
2019-05-25T00:09:53.987Z,51.62
2019-05-25T00:10:54.019Z,52.00
2019-05-25T00:11:54.051Z,51.04
2019-05-25T00:12:54.075Z,51.81
2019-05-25T00:13:54.089Z,51.72
2019-05-25T00:14:54.123Z,51.81
2019-05-25T00:15:59.468Z,51.72
2019-05-25T00:16:54.176Z,52.00
2019-05-25T00:17:57.004Z,51.91
2019-05-25T00:18:54.227Z,51.88
2019-05-25T00:19:54.249Z,50.18
2019-05-25T00:20:54.293Z,52.20
2019-05-25T00:21:54.307Z,51.88
2019-05-25T00:22:54.333Z,52.48
2019-05-25T00:23:54.357Z,50.66
2019-05-25T00:24:54.389Z,50.63
2019-05-25T00:25:54.407Z,50.54
2019-05-25T00:26:54.456Z,52.46
2019-05-25T00:27:54.464Z,49.99
2019-05-25T00:28:54.499Z,51.91
2019-05-25T00:29:54.532Z,50.44
2019-05-25T00:30:54.545Z,50.15
2019-05-25T00:31:54.592Z,51.69
2019-05-25T00:32:54.600Z,52.75
2019-05-25T00:33:54.639Z,52.17
2019-05-25T00:34:54.656Z,50.34
2019-05-25T00:35:55.445Z,50.73
2019-05-25T00:36:54.706Z,52.84
2019-05-25T00:37:54.730Z,51.40
2019-05-25T00:38:54.757Z,52.17
2019-05-25T00:39:54.781Z,53.52
2019-05-25T00:40:54.804Z,51.11
2019-05-25T00:41:54.837Z,50.13
2019-05-25T00:42:54.870Z,50.42
2019-05-25T00:43:54.887Z,53.39
2019-05-25T00:44:54.917Z,53.90
2019-05-25T00:45:54.948Z,53.42
2019-05-25T00:46:54.968Z,53.61
2019-05-25T00:47:55.536Z,53.80
2019-05-25T00:48:55.017Z,51.11
2019-05-25T00:49:55.062Z,53.23
2019-05-25T00:50:55.084Z,51.88
2019-05-25T00:51:55.120Z,53.13
2019-05-25T00:52:55.126Z,53.52
2019-05-25T00:53:55.160Z,53.90
2019-05-25T00:54:55.176Z,53.80
2019-05-25T00:55:55.224Z,53.90
2019-05-25T00:56:55.228Z,53.61
2019-05-25T00:57:55.266Z,54.00
2019-05-25T00:58:55.295Z,54.19
2019-05-25T00:59:55.307Z,53.90
2019-05-25T01:00:55.373Z,53.61
2019-05-25T01:01:55.372Z,54.77
2019-05-25T01:02:55.402Z,51.95
2019-05-25T01:03:55.428Z,54.09
2019-05-25T01:04:55.446Z,54.55
2019-05-25T01:05:55.485Z,53.70
2019-05-25T01:06:55.500Z,54.09
2019-05-25T01:07:55.553Z,54.16
2019-05-25T01:08:55.565Z,53.78
2019-05-25T01:09:55.578Z,54.74
2019-05-25T01:10:55.605Z,54.47
2019-05-25T01:11:55.638Z,54.35
2019-05-25T01:12:55.655Z,55.02
2019-05-25T01:13:55.684Z,55.32
2019-05-25T01:14:55.723Z,54.83
2019-05-25T01:15:55.730Z,54.93
2019-05-25T01:16:55.811Z,54.55
2019-05-25T01:17:56.472Z,54.74
2019-05-25T01:18:55.827Z,52.81
2019-05-25T01:19:55.846Z,54.06
2019-05-25T01:20:55.863Z,54.16
2019-05-25T01:21:55.886Z,53.36
2019-05-25T01:22:55.912Z,52.89
2019-05-25T01:23:55.938Z,53.36
2019-05-25T01:24:55.968Z,55.00
2019-05-25T01:25:56.000Z,54.74
2019-05-25T01:26:56.023Z,55.99
2019-05-25T01:27:56.054Z,53.97
2019-05-25T01:28:56.080Z,55.02
2019-05-25T01:29:56.104Z,54.13
2019-05-25T01:30:56.132Z,54.23
2019-05-25T01:31:56.155Z,55.77
2019-05-25T01:32:56.188Z,56.15
2019-05-25T01:33:56.231Z,54.90
2019-05-25T01:34:56.243Z,54.71
2019-05-25T01:35:56.268Z,55.99
2019-05-25T01:36:56.280Z,55.69
2019-05-25T01:37:56.309Z,54.13
2019-05-25T01:38:56.342Z,55.57
2019-05-25T01:39:56.361Z,54.42
2019-05-25T01:40:56.385Z,55.55
2019-05-25T01:41:56.425Z,56.22
2019-05-25T01:42:56.436Z,56.41
2019-05-25T01:43:56.478Z,55.67
2019-05-25T01:44:57.465Z,57.68
2019-05-25T01:45:56.523Z,57.21
2019-05-25T01:46:56.563Z,55.67
2019-05-25T01:47:56.568Z,55.96
2019-05-25T01:48:56.617Z,57.50
2019-05-25T01:49:56.623Z,57.59
2019-05-25T01:50:56.644Z,57.97
2019-05-25T01:51:56.676Z,57.21
2019-05-25T01:52:56.711Z,57.30
2019-05-25T01:53:56.726Z,57.21
2019-05-25T01:55:00.043Z,57.21
2019-05-25T01:55:56.782Z,57.21
2019-05-25T01:56:56.808Z,56.82
2019-05-25T01:57:56.843Z,55.74
2019-05-25T01:58:56.858Z,57.30
2019-05-25T01:59:56.914Z,58.07
2019-05-25T02:00:56.917Z,57.59
2019-05-25T02:01:56.997Z,57.11
2019-05-25T02:02:56.980Z,57.59
2019-05-25T02:03:57.005Z,56.05
2019-05-25T02:04:57.051Z,56.51
2019-05-25T02:05:57.059Z,57.97
2019-05-25T02:06:57.067Z,58.07
2019-05-25T02:07:57.099Z,58.07
2019-05-25T02:08:57.119Z,57.18
2019-05-25T02:09:57.145Z,58.17
2019-05-25T02:10:57.175Z,58.55
2019-05-25T02:11:57.204Z,57.97
2019-05-25T02:12:57.229Z,58.84
2019-05-25T02:13:57.267Z,57.95
2019-05-25T02:14:57.280Z,58.78
2019-05-25T02:15:57.299Z,60.44
2019-05-25T02:16:57.329Z,61.02
2019-05-25T02:17:57.367Z,60.53
2019-05-25T02:18:57.383Z,60.15
2019-05-25T02:19:57.408Z,59.86
2019-05-25T02:20:57.429Z,60.25
2019-05-25T02:21:57.461Z,60.35
2019-05-25T02:22:58.497Z,60.44
2019-05-25T02:23:57.515Z,60.82
2019-05-25T02:24:57.545Z,60.25
2019-05-25T02:25:57.561Z,60.44
2019-05-25T02:26:57.597Z,60.63
2019-05-25T02:27:57.613Z,61.30
2019-05-25T02:28:57.633Z,60.82
2019-05-25T02:29:57.665Z,61.69
2019-05-25T02:30:57.689Z,60.82
2019-05-25T02:31:57.725Z,60.44
2019-05-25T02:32:57.752Z,61.30
2019-05-25T02:33:57.771Z,61.49
2019-05-25T02:34:57.797Z,61.78
2019-05-25T02:35:57.829Z,61.69
2019-05-25T02:36:57.845Z,61.30
2019-05-25T02:37:57.883Z,60.70
2019-05-25T02:38:57.898Z,62.65
2019-05-25T02:39:58.475Z,62.07
2019-05-25T02:40:57.949Z,62.07
2019-05-25T02:41:57.975Z,62.07
2019-05-25T02:42:58.006Z,62.16
2019-05-25T02:43:58.032Z,62.07
2019-05-25T02:44:58.097Z,61.18
2019-05-25T02:45:58.093Z,61.66
2019-05-25T02:46:58.114Z,62.13
2019-05-25T02:47:58.139Z,61.98
2019-05-25T02:48:58.163Z,62.26
2019-05-25T02:49:58.190Z,62.26
2019-05-25T02:50:58.221Z,61.88
2019-05-25T02:51:58.233Z,62.36
2019-05-25T02:52:58.264Z,62.16
2019-05-25T02:53:58.287Z,62.07
2019-05-25T02:54:58.317Z,62.36
2019-05-25T02:55:58.342Z,62.07
2019-05-25T02:56:58.369Z,62.36
2019-05-25T02:57:58.421Z,62.45
2019-05-25T02:58:58.434Z,62.74
2019-05-25T02:59:58.456Z,62.93
2019-05-25T03:00:58.496Z,62.84
2019-05-25T03:01:59.064Z,62.84
2019-05-25T03:02:58.524Z,62.71
2019-05-25T03:03:58.558Z,62.33
2019-05-25T03:04:58.591Z,62.62
2019-05-25T03:05:58.606Z,62.62
2019-05-25T03:06:58.624Z,63.29
2019-05-25T03:07:58.651Z,63.38
2019-05-25T03:08:58.692Z,63.57
2019-05-25T03:09:58.707Z,63.48
2019-05-25T03:10:58.726Z,64.05
2019-05-25T03:11:58.782Z,63.38
2019-05-25T03:12:58.790Z,63.38
2019-05-25T03:13:58.806Z,63.57
2019-05-25T03:14:58.846Z,63.57
2019-05-25T03:15:58.850Z,63.96
2019-05-25T03:16:58.887Z,64.34
2019-05-25T03:17:58.940Z,64.34
2019-05-25T03:18:58.930Z,64.15
2019-05-25T03:19:58.991Z,64.43
2019-05-25T03:20:59.003Z,64.34
2019-05-25T03:21:59.020Z,64.34
2019-05-25T03:22:59.054Z,63.96
2019-05-25T03:23:59.075Z,64.25
2019-05-25T03:24:59.089Z,64.53
2019-05-25T03:25:59.116Z,64.82
2019-05-25T03:26:59.136Z,65.01
2019-05-25T03:27:59.174Z,65.20
2019-05-25T03:28:59.223Z,64.82
2019-05-25T03:29:59.219Z,64.92
2019-05-25T03:30:59.264Z,64.98
2019-05-25T03:31:59.273Z,65.46
2019-05-25T03:32:59.305Z,65.78
2019-05-25T03:33:59.323Z,65.46
2019-05-25T03:34:59.374Z,65.65
2019-05-25T03:35:59.397Z,66.13
2019-05-25T03:36:59.413Z,66.03
2019-05-25T03:37:59.424Z,65.84
2019-05-25T03:38:59.459Z,65.97
2019-05-25T03:39:59.500Z,66.22
2019-05-25T03:40:59.500Z,66.80
2019-05-25T03:41:59.543Z,66.32
2019-05-25T03:42:59.560Z,66.99
2019-05-25T03:43:59.589Z,66.74
2019-05-25T03:44:59.604Z,66.55
2019-05-25T03:45:59.641Z,66.51
2019-05-25T03:46:59.675Z,66.61
2019-05-25T03:47:59.687Z,66.13
2019-05-25T03:48:59.705Z,66.51
2019-05-25T03:49:59.737Z,66.22
2019-05-25T03:50:59.778Z,66.71
2019-05-25T03:51:59.783Z,67.57
2019-05-25T03:52:59.827Z,66.42
2019-05-25T03:53:59.834Z,66.42
2019-05-25T03:54:59.880Z,67.54
2019-05-25T03:56:05.899Z,67.05
2019-05-25T03:56:59.910Z,68.05
2019-05-25T03:57:59.935Z,68.05
2019-05-25T03:58:59.969Z,68.33
2019-05-25T03:59:59.987Z,68.24
2019-05-25T04:01:00.014Z,67.47
2019-05-25T04:02:00.049Z,66.96
2019-05-25T04:03:00.067Z,68.62
2019-05-25T04:04:00.105Z,68.43
2019-05-25T04:05:00.129Z,67.95
2019-05-25T04:06:00.153Z,67.66
2019-05-25T04:07:00.179Z,68.14
2019-05-25T04:08:01.004Z,67.95
2019-05-25T04:09:00.215Z,67.47
2019-05-25T04:10:00.245Z,67.38
2019-05-25T04:11:00.276Z,68.49
2019-05-25T04:12:00.300Z,69.35
2019-05-25T04:13:00.327Z,68.52
2019-05-25T04:14:00.381Z,68.72
2019-05-25T04:15:00.386Z,67.95
2019-05-25T04:16:00.399Z,68.14
2019-05-25T04:17:00.425Z,69.10
2019-05-25T04:18:00.473Z,68.24
2019-05-25T04:19:00.471Z,68.43
2019-05-25T04:20:00.499Z,67.95
2019-05-25T04:21:00.539Z,67.82
2019-05-25T04:22:00.551Z,68.78
2019-05-25T04:23:00.587Z,69.74
2019-05-25T04:24:00.603Z,69.39
2019-05-25T04:25:00.630Z,68.33
2019-05-25T04:26:00.659Z,68.62
2019-05-25T04:27:00.681Z,68.49
2019-05-25T04:28:00.708Z,68.21
2019-05-25T04:29:01.575Z,68.40
2019-05-25T04:30:00.759Z,69.03
2019-05-25T04:31:00.821Z,70.89
2019-05-25T04:32:00.820Z,70.12
2019-05-25T04:33:00.843Z,69.48
2019-05-25T04:34:00.858Z,69.10
2019-05-25T04:35:00.889Z,68.62
2019-05-25T04:36:00.905Z,68.59
2019-05-25T04:37:00.937Z,68.68
2019-05-25T04:38:02.706Z,69.74
2019-05-25T04:39:00.984Z,69.48
2019-05-25T04:40:01.016Z,68.62
2019-05-25T04:41:01.074Z,69.29
2019-05-25T04:42:02.086Z,68.91
2019-05-25T04:43:01.104Z,68.81
2019-05-25T04:44:01.109Z,67.76
2019-05-25T04:45:01.143Z,68.52
2019-05-25T04:46:01.162Z,68.24
2019-05-25T04:47:01.186Z,68.18
2019-05-25T04:48:01.218Z,67.60
2019-05-25T04:49:02.079Z,67.18
2019-05-25T04:50:01.268Z,67.63
2019-05-25T04:51:01.329Z,68.40
2019-05-25T04:52:01.325Z,69.77
2019-05-25T04:53:01.339Z,69.96
2019-05-25T04:54:01.368Z,68.72
2019-05-25T04:55:01.393Z,68.11
2019-05-25T04:56:01.417Z,68.84
2019-05-25T04:57:01.450Z,69.89
2019-05-25T04:58:01.491Z,70.03
2019-05-25T04:59:01.501Z,69.89
2019-05-25T05:00:01.535Z,71.33
2019-05-25T05:01:01.548Z,70.70
2019-05-25T05:02:01.594Z,70.41
2019-05-25T05:03:01.601Z,69.45
2019-05-25T05:04:01.623Z,68.59
2019-05-25T05:05:01.686Z,69.74
2019-05-25T05:06:01.681Z,70.21
2019-05-25T05:07:01.698Z,70.15
2019-05-25T05:08:01.736Z,69.58
2019-05-25T05:09:01.780Z,68.62
2019-05-25T05:10:03.308Z,69.04
2019-05-25T05:11:01.816Z,68.56
2019-05-25T05:12:01.829Z,67.99
2019-05-25T05:13:01.866Z,68.27
2019-05-25T05:14:01.879Z,68.75
2019-05-25T05:15:01.901Z,68.27
2019-05-25T05:16:01.935Z,67.99
2019-05-25T05:17:01.959Z,67.69
2019-05-25T05:18:01.982Z,67.12
2019-05-25T05:19:02.011Z,67.22
2019-05-25T05:20:02.057Z,67.79
2019-05-25T05:21:02.062Z,67.99
2019-05-25T05:22:05.142Z,67.63
2019-05-25T05:23:02.112Z,67.12
2019-05-25T05:24:02.153Z,67.16
2019-05-25T05:25:02.184Z,67.99
2019-05-25T05:26:02.184Z,67.12
2019-05-25T05:27:02.218Z,67.16
2019-05-25T05:28:02.248Z,66.83
2019-05-25T05:29:02.268Z,67.69
2019-05-25T05:30:02.294Z,66.83
2019-05-25T05:31:03.020Z,66.74
2019-05-25T05:32:02.345Z,67.60
2019-05-25T05:33:02.363Z,66.26
2019-05-25T05:34:02.389Z,66.64
2019-05-25T05:35:03.086Z,67.89
2019-05-25T05:36:02.458Z,67.41
2019-05-25T05:37:03.026Z,68.12
2019-05-25T05:38:02.494Z,68.12
2019-05-25T05:39:02.536Z,68.02
2019-05-25T05:40:02.542Z,68.30
2019-05-25T05:41:02.567Z,67.92
2019-05-25T05:42:02.626Z,67.54
2019-05-25T05:43:02.636Z,67.73
2019-05-25T05:44:02.640Z,65.91
2019-05-25T05:45:02.689Z,68.21
2019-05-25T05:46:02.701Z,66.80
2019-05-25T05:47:02.725Z,67.60
2019-05-25T05:48:02.757Z,69.23
2019-05-25T05:49:02.783Z,66.89
2019-05-25T05:50:03.529Z,67.18
2019-05-25T05:51:02.823Z,69.23
2019-05-25T05:52:02.848Z,69.23
2019-05-25T05:53:02.947Z,68.46
2019-05-25T05:54:02.906Z,67.02
2019-05-25T05:55:02.931Z,68.85
2019-05-25T05:56:02.963Z,68.37
2019-05-25T05:57:12.460Z,68.02
2019-05-25T05:58:03.013Z,66.80
2019-05-25T05:59:03.050Z,67.76
2019-05-25T06:00:03.061Z,66.83
2019-05-25T06:01:03.090Z,67.22
2019-05-25T06:02:03.139Z,67.66
2019-05-25T06:03:03.134Z,67.54
2019-05-25T06:04:03.169Z,67.95
2019-05-25T06:05:03.572Z,70.76
2019-05-25T06:06:03.212Z,70.29
2019-05-25T06:07:03.238Z,68.66
2019-05-25T06:08:03.273Z,69.23
2019-05-25T06:09:04.184Z,70.03
2019-05-25T06:10:03.324Z,66.45
2019-05-25T06:11:03.337Z,68.37
2019-05-25T06:12:03.370Z,70.09
2019-05-25T06:13:03.397Z,69.46
2019-05-25T06:14:03.411Z,70.03
2019-05-25T06:15:03.453Z,68.88
2019-05-25T06:16:04.036Z,66.86
2019-05-25T06:17:03.493Z,66.35
2019-05-25T06:18:03.523Z,66.89
2019-05-25T06:19:03.547Z,69.23
2019-05-25T06:20:03.579Z,67.47
2019-05-25T06:21:03.600Z,67.47
2019-05-25T06:22:04.547Z,68.62
2019-05-25T06:23:07.358Z,66.51
2019-05-25T06:24:03.679Z,66.42
2019-05-25T06:25:03.698Z,66.80
2019-05-25T06:26:03.728Z,68.91
2019-05-25T06:27:03.754Z,69.62
2019-05-25T06:28:03.818Z,66.51
2019-05-25T06:29:03.819Z,67.79
2019-05-25T06:30:03.827Z,69.42
2019-05-25T06:31:03.871Z,67.22
2019-05-25T06:32:03.896Z,66.26
2019-05-25T06:33:03.905Z,65.11
2019-05-25T06:34:03.931Z,65.26
2019-05-25T06:35:03.959Z,66.89
2019-05-25T06:36:03.980Z,66.61
2019-05-25T06:37:04.031Z,66.32
2019-05-25T06:38:04.067Z,66.71
2019-05-25T06:39:04.070Z,67.02
2019-05-25T06:40:04.158Z,65.97
2019-05-25T06:41:04.106Z,67.44
2019-05-25T06:42:04.136Z,67.73
2019-05-25T06:43:04.168Z,66.39
2019-05-25T06:44:05.042Z,67.44
2019-05-25T06:45:04.216Z,66.77
2019-05-25T06:46:04.254Z,66.19
2019-05-25T06:47:04.260Z,67.54
2019-05-25T06:48:04.317Z,64.85
2019-05-25T06:49:04.320Z,64.47
2019-05-25T06:50:04.355Z,66.29
2019-05-25T06:51:04.378Z,65.62
2019-05-25T06:52:04.391Z,65.68
2019-05-25T06:53:04.417Z,66.61
2019-05-25T06:54:04.454Z,67.38
2019-05-25T06:55:04.466Z,67.57
2019-05-25T06:56:04.499Z,67.38
2019-05-25T06:57:04.529Z,68.85
2019-05-25T06:58:04.542Z,69.81
2019-05-25T06:59:04.593Z,66.83
2019-05-25T07:00:04.603Z,66.42
2019-05-25T07:01:04.622Z,66.22
2019-05-25T07:02:04.644Z,65.94
2019-05-25T07:03:04.676Z,66.32
2019-05-25T07:04:04.736Z,66.32
2019-05-25T07:05:05.610Z,66.13
2019-05-25T07:06:04.751Z,66.45
2019-05-25T07:07:04.776Z,68.27
2019-05-25T07:08:04.811Z,66.26
2019-05-25T07:09:04.822Z,65.49
2019-05-25T07:10:04.884Z,65.30
2019-05-25T07:11:04.923Z,65.05
2019-05-25T07:12:04.894Z,67.16
2019-05-25T07:13:04.925Z,66.58
2019-05-25T07:14:04.962Z,66.67
2019-05-25T07:15:04.979Z,66.00
2019-05-25T07:16:05.018Z,64.95
2019-05-25T07:17:05.050Z,64.66
2019-05-25T07:18:05.062Z,66.00
2019-05-25T07:19:05.097Z,65.81
2019-05-25T07:20:05.106Z,64.69
2019-05-25T07:21:05.149Z,64.79
2019-05-25T07:22:06.048Z,64.79
2019-05-25T07:23:05.188Z,65.17
2019-05-25T07:24:05.206Z,65.08
2019-05-25T07:25:05.236Z,63.64
2019-05-25T07:26:05.259Z,65.08
2019-05-25T07:27:05.300Z,64.98
2019-05-25T07:28:05.327Z,64.89
2019-05-25T07:29:05.348Z,64.89
2019-05-25T07:30:05.410Z,65.08
2019-05-25T07:31:05.440Z,64.89
2019-05-25T07:32:05.433Z,65.08
2019-05-25T07:33:06.052Z,63.73
2019-05-25T07:34:05.470Z,64.40
2019-05-25T07:35:05.499Z,62.93
2019-05-25T07:36:07.545Z,64.37
2019-05-25T07:37:05.548Z,63.99
2019-05-25T07:38:05.580Z,64.66
2019-05-25T07:39:05.607Z,64.85
2019-05-25T07:40:05.627Z,66.19
2019-05-25T07:41:05.645Z,65.23
2019-05-25T07:42:05.673Z,64.95
2019-05-25T07:43:05.719Z,65.30
2019-05-25T07:44:05.722Z,65.59
2019-05-25T07:45:05.755Z,66.49
2019-05-25T07:46:05.783Z,67.83
2019-05-25T07:47:05.804Z,66.86
2019-05-25T07:48:05.834Z,66.39
2019-05-25T07:49:05.862Z,64.85
2019-05-25T07:50:05.887Z,64.56
2019-05-25T07:51:05.951Z,64.09
2019-05-25T07:52:05.950Z,64.76
2019-05-25T07:53:05.957Z,64.82
2019-05-25T07:54:05.992Z,65.20
2019-05-25T07:55:06.007Z,65.68
2019-05-25T07:56:06.028Z,66.26
2019-05-25T07:57:06.646Z,66.83
2019-05-25T07:58:16.948Z,66.35
2019-05-25T07:59:06.117Z,66.16
2019-05-25T08:00:06.143Z,67.50
2019-05-25T08:01:06.165Z,67.63
2019-05-25T08:02:07.065Z,66.96
2019-05-25T08:03:06.221Z,66.10
2019-05-25T08:04:06.243Z,66.86
2019-05-25T08:05:06.269Z,66.39
2019-05-25T08:06:06.291Z,65.43
2019-05-25T08:07:06.321Z,65.46
2019-05-25T08:08:06.352Z,65.36
2019-05-25T08:09:06.382Z,64.89
2019-05-25T08:10:06.402Z,64.09
2019-05-25T08:11:06.426Z,65.11
2019-05-25T08:12:06.450Z,66.93
2019-05-25T08:13:06.484Z,66.35
2019-05-25T08:14:06.497Z,66.35
2019-05-25T08:15:06.528Z,66.93
2019-05-25T08:16:06.548Z,67.83
2019-05-25T08:17:07.585Z,66.64
2019-05-25T08:18:06.599Z,66.58
2019-05-25T08:19:06.624Z,67.44
2019-05-25T08:20:06.681Z,67.63
2019-05-25T08:21:06.685Z,66.00
2019-05-25T08:22:06.719Z,65.14
2019-05-25T08:23:06.744Z,66.29
2019-05-25T08:24:06.766Z,65.91
2019-05-25T08:25:06.784Z,67.06
2019-05-25T08:26:06.828Z,66.96
2019-05-25T08:27:06.831Z,67.35
2019-05-25T08:28:06.865Z,66.96
2019-05-25T08:29:06.903Z,67.25
2019-05-25T08:30:06.939Z,66.49
2019-05-25T08:31:06.973Z,66.16
2019-05-25T08:32:06.959Z,66.93
2019-05-25T08:33:07.000Z,66.55
2019-05-25T08:34:07.012Z,68.08
2019-05-25T08:35:07.049Z,68.21
2019-05-25T08:36:07.060Z,68.02
2019-05-25T08:37:07.099Z,67.63
2019-05-25T08:38:07.122Z,67.63
2019-05-25T08:39:07.146Z,68.59
2019-05-25T08:40:08.133Z,68.40
2019-05-25T08:41:07.203Z,67.25
2019-05-25T08:42:07.222Z,67.83
2019-05-25T08:43:07.253Z,66.96
2019-05-25T08:44:07.264Z,67.02
2019-05-25T08:45:07.291Z,67.02
2019-05-25T08:46:07.330Z,67.32
2019-05-25T08:47:07.345Z,68.62
2019-05-25T08:48:07.397Z,69.39
2019-05-25T08:49:07.391Z,69.39
2019-05-25T08:50:07.428Z,69.48
2019-05-25T08:51:07.474Z,69.77
2019-05-25T08:52:07.476Z,69.77
2019-05-25T08:53:07.496Z,70.96
2019-05-25T08:54:07.531Z,70.38
2019-05-25T08:55:07.564Z,70.67
2019-05-25T08:56:07.574Z,70.29
2019-05-25T08:57:07.615Z,70.03
2019-05-25T08:58:07.623Z,69.93
2019-05-25T08:59:07.668Z,70.13
2019-05-25T09:00:07.679Z,70.03
2019-05-25T09:01:07.712Z,69.65
2019-05-25T09:02:07.752Z,68.46
2019-05-25T09:03:07.762Z,69.90
2019-05-25T09:04:07.778Z,70.38
2019-05-25T09:05:07.815Z,70.00
2019-05-25T09:06:07.826Z,70.09
2019-05-25T09:07:07.858Z,70.35
2019-05-25T09:08:07.900Z,70.92
2019-05-25T09:09:07.907Z,70.54
2019-05-25T09:10:07.944Z,71.59
2019-05-25T09:11:07.957Z,71.92
2019-05-25T09:12:07.999Z,70.96
2019-05-25T09:13:08.004Z,71.15
2019-05-25T09:14:08.045Z,71.05
2019-05-25T09:15:08.122Z,69.42
2019-05-25T09:16:08.100Z,70.00
2019-05-25T09:17:08.110Z,70.19
2019-05-25T09:18:08.140Z,70.67
2019-05-25T09:19:08.168Z,70.32
2019-05-25T09:20:08.204Z,70.80
2019-05-25T09:21:08.264Z,70.42
2019-05-25T09:22:08.238Z,70.51
2019-05-25T09:23:08.281Z,69.23
2019-05-25T09:24:08.288Z,70.42
2019-05-25T09:25:09.087Z,69.26
2019-05-25T09:26:08.341Z,69.46
2019-05-25T09:27:08.382Z,69.46
2019-05-25T09:28:08.393Z,69.78
2019-05-25T09:29:08.427Z,69.20
2019-05-25T09:30:08.455Z,68.53
2019-05-25T09:31:08.476Z,68.53
2019-05-25T09:32:08.515Z,68.82
2019-05-25T09:33:08.526Z,67.63
2019-05-25T09:34:08.566Z,68.27
2019-05-25T09:35:08.613Z,68.95
2019-05-25T09:36:08.600Z,69.71
2019-05-25T09:37:08.624Z,71.09
2019-05-25T09:38:08.667Z,70.51
2019-05-25T09:39:08.672Z,69.93
2019-05-25T09:40:08.708Z,70.03
2019-05-25T09:41:08.732Z,69.93
2019-05-25T09:42:08.768Z,69.07
2019-05-25T09:43:08.788Z,68.59
2019-05-25T09:44:08.800Z,68.50
2019-05-25T09:45:08.835Z,69.07
2019-05-25T09:46:08.866Z,68.88
2019-05-25T09:47:08.898Z,68.98
2019-05-25T09:48:08.994Z,68.79
2019-05-25T09:49:08.949Z,68.69
2019-05-25T09:50:08.955Z,68.30
2019-05-25T09:51:15.528Z,68.46
2019-05-25T09:52:09.003Z,68.37
2019-05-25T09:53:09.028Z,69.04
2019-05-25T09:54:09.081Z,70.00
2019-05-25T09:55:09.085Z,70.03
2019-05-25T09:56:09.112Z,68.37
2019-05-25T09:57:09.149Z,68.46
2019-05-25T09:58:09.230Z,71.05
2019-05-25T09:59:19.659Z,70.51
2019-05-25T10:00:09.231Z,70.32
2019-05-25T10:01:09.238Z,69.36
2019-05-25T10:02:09.276Z,69.93
2019-05-25T10:03:09.294Z,68.95
2019-05-25T10:04:09.312Z,69.13
2019-05-25T10:05:09.347Z,71.19
2019-05-25T10:06:12.815Z,70.51
2019-05-25T10:07:09.391Z,69.52
2019-05-25T10:08:10.156Z,68.37
2019-05-25T10:09:09.465Z,68.37
2019-05-25T10:10:10.170Z,69.52
2019-05-25T10:11:09.510Z,69.84
2019-05-25T10:12:09.579Z,68.98
2019-05-25T10:13:09.572Z,68.59
2019-05-25T10:14:09.659Z,67.16
2019-05-25T10:15:09.603Z,67.60
2019-05-25T10:16:10.650Z,67.32
2019-05-25T10:17:09.660Z,67.02
2019-05-25T10:18:09.673Z,68.30
2019-05-25T10:19:09.710Z,67.69
2019-05-25T10:20:10.683Z,67.79
2019-05-25T10:21:09.771Z,67.41
2019-05-25T10:22:09.777Z,67.79
2019-05-25T10:23:09.827Z,67.50
2019-05-25T10:24:09.821Z,67.25
2019-05-25T10:25:09.856Z,66.96
2019-05-25T10:26:09.878Z,68.12
2019-05-25T10:27:09.928Z,67.67
2019-05-25T10:28:09.948Z,67.67
2019-05-25T10:29:09.957Z,66.90
2019-05-25T10:30:09.998Z,66.71
2019-05-25T10:31:10.012Z,64.92
2019-05-25T10:32:10.046Z,66.84
2019-05-25T10:33:10.097Z,65.27
2019-05-25T10:34:10.087Z,65.36
2019-05-25T10:35:10.110Z,67.09
2019-05-25T10:36:10.141Z,63.92
2019-05-25T10:38:10.220Z,64.82
2019-05-25T10:39:10.245Z,64.34
2019-05-25T10:40:10.276Z,63.48
2019-05-25T10:41:10.324Z,63.35
2019-05-25T10:42:10.335Z,63.83
2019-05-25T10:43:10.359Z,64.28
2019-05-25T10:44:31.382Z,64.85
2019-05-25T10:45:10.381Z,65.14
2019-05-25T10:46:10.420Z,64.85
2019-05-25T10:47:10.461Z,64.56
2019-05-25T10:48:10.474Z,66.67
2019-05-25T10:49:11.785Z,64.76
2019-05-25T10:50:31.544Z,65.14
2019-05-25T10:51:10.557Z,64.28
2019-05-25T10:52:10.573Z,64.47
2019-05-25T10:53:10.613Z,63.51
2019-05-25T10:54:10.621Z,63.79
2019-05-25T10:55:10.657Z,64.28
2019-05-25T10:56:31.703Z,63.25
2019-05-25T10:57:13.266Z,66.03
2019-05-25T10:58:10.722Z,64.98
2019-05-25T10:59:10.802Z,63.35
2019-05-25T11:00:10.772Z,63.25
2019-05-25T11:01:10.801Z,63.25
2019-05-25T11:02:31.886Z,63.32
2019-05-25T11:03:10.847Z,64.37
2019-05-25T11:04:10.908Z,64.18
2019-05-25T11:05:10.907Z,64.09
2019-05-25T11:06:10.943Z,65.52
2019-05-25T11:07:10.944Z,65.08
2019-05-25T11:08:32.002Z,64.02
2019-05-25T11:09:11.019Z,65.08
2019-05-25T11:10:11.101Z,64.12
2019-05-25T11:11:11.058Z,63.99
2019-05-25T11:12:11.088Z,64.56
2019-05-25T11:13:11.104Z,64.18
2019-05-25T11:14:32.737Z,64.37
2019-05-25T11:15:11.174Z,63.70
2019-05-25T11:16:11.785Z,64.18
2019-05-25T11:17:11.227Z,64.76
2019-05-25T11:18:11.238Z,65.33
2019-05-25T11:19:11.266Z,64.95
2019-05-25T11:20:32.310Z,65.23
2019-05-25T11:21:11.330Z,64.95
2019-05-25T11:22:11.351Z,64.89
2019-05-25T11:23:11.372Z,64.02
2019-05-25T11:24:11.415Z,63.73
2019-05-25T11:25:11.424Z,63.45
2019-05-25T11:26:32.470Z,63.45
2019-05-25T11:27:11.472Z,63.45
2019-05-25T11:28:11.489Z,63.83
2019-05-25T11:29:11.517Z,64.59
2019-05-25T11:30:11.553Z,65.17
2019-05-25T11:31:11.590Z,66.03
2019-05-25T11:32:32.622Z,64.69
2019-05-25T11:33:11.650Z,63.35
2019-05-25T11:34:11.663Z,64.63
2019-05-25T11:35:12.335Z,62.61
2019-05-25T11:36:11.699Z,61.94
2019-05-25T11:37:15.296Z,62.71
2019-05-25T11:38:32.822Z,62.93
2019-05-25T11:39:11.798Z,61.65
2019-05-25T11:40:12.785Z,61.36
2019-05-25T11:41:11.839Z,61.55
2019-05-25T11:42:11.869Z,61.91
2019-05-25T11:43:11.904Z,62.13
2019-05-25T11:44:32.962Z,62.42
2019-05-25T11:45:11.944Z,62.90
2019-05-25T11:46:12.765Z,61.65
2019-05-25T11:47:12.682Z,61.75
2019-05-25T11:48:12.016Z,62.71
2019-05-25T11:49:22.100Z,62.71
2019-05-25T11:50:33.099Z,61.75
2019-05-25T11:51:12.111Z,61.94
2019-05-25T11:52:12.143Z,62.23
2019-05-25T11:53:12.144Z,62.13
2019-05-25T11:54:12.191Z,61.94
2019-05-25T11:55:12.214Z,62.32
2019-05-25T11:56:33.240Z,62.10
2019-05-25T11:57:12.271Z,62.58
2019-05-25T11:58:12.285Z,62.77
2019-05-25T11:59:12.336Z,62.48
2019-05-25T12:00:24.213Z,62.29
2019-05-25T12:01:12.352Z,62.19
2019-05-25T12:02:33.402Z,62.19
2019-05-25T12:03:13.188Z,62.19
2019-05-25T12:04:12.438Z,62.10
2019-05-25T12:05:12.524Z,62.48
2019-05-25T12:06:12.480Z,62.77
2019-05-25T12:07:12.542Z,65.01
2019-05-25T12:08:33.569Z,62.71
2019-05-25T12:09:12.578Z,62.32
2019-05-25T12:10:12.629Z,62.61
2019-05-25T12:11:12.633Z,61.94
2019-05-25T12:12:12.635Z,62.52
2019-05-25T12:13:12.699Z,61.94
2019-05-25T12:14:33.708Z,61.81
2019-05-25T12:15:12.728Z,61.33
2019-05-25T12:16:12.752Z,61.62
2019-05-25T12:17:12.768Z,62.01
2019-05-25T12:18:12.824Z,62.01
2019-05-25T12:19:15.008Z,62.96
2019-05-25T12:20:34.706Z,62.19
2019-05-25T12:21:12.882Z,61.91
2019-05-25T12:22:12.927Z,62.16
2019-05-25T12:23:13.178Z,62.36
2019-05-25T12:24:12.952Z,62.26
2019-05-25T12:25:13.056Z,62.39
2019-05-25T12:26:34.046Z,62.96
2019-05-25T12:27:13.053Z,63.06
2019-05-25T12:28:13.072Z,62.19
2019-05-25T12:29:13.078Z,61.81
2019-05-25T12:30:13.169Z,62.19
2019-05-25T12:31:13.154Z,62.61
2019-05-25T12:32:34.238Z,62.13
2019-05-25T12:33:13.206Z,61.94
2019-05-25T12:34:13.213Z,62.48
2019-05-25T12:35:13.250Z,62.13
2019-05-25T12:36:13.278Z,62.23
2019-05-25T12:37:13.284Z,62.23
2019-05-25T12:38:34.321Z,62.68
2019-05-25T12:39:13.356Z,62.68
2019-05-25T12:40:13.356Z,62.90
2019-05-25T12:41:13.407Z,64.05
2019-05-25T12:42:13.425Z,61.94
2019-05-25T12:43:14.318Z,60.78
2019-05-25T12:44:34.681Z,61.68
2019-05-25T12:45:13.560Z,62.16
2019-05-25T12:46:13.538Z,62.07
2019-05-25T12:47:13.602Z,62.35
2019-05-25T12:48:13.569Z,61.49
2019-05-25T12:49:14.292Z,60.69
2019-05-25T12:50:34.690Z,62.07
2019-05-25T12:51:13.651Z,61.55
2019-05-25T12:52:13.696Z,61.94
2019-05-25T12:53:13.702Z,61.84
2019-05-25T12:54:13.730Z,64.15